Aérodrome :
LOGIN :

S'inscrire | Disclaimer

   EN    FR    IT 

 










Légende :    VFR   VFR Marginal   IFR   IFR Intensif   IFR Très Intensif
Visi : 
Plafond : 
>= 8 km
>= 3000ft
5 à 8 km
1000 à 3000 ft
1500m à 5 km
500 à 1000 ft
800 à 1500m
200 à 500 ft
< 800m
< 200 ft
Symboles :   Orages  Brouillard  Fortes neiges  Fortes précipitations  Vent > 20 kt
SIGMETs :   Divers  Orages  Givrage  Turbulence  Onde Orograph.  Cendres Volcan.






- Altitude de l'aérodrome : 204 ft
- Code IATA : AGF


LFBA - Agen

DERNIER METAR :
  • 210230Z AUTO VRB02KT 9999 BKN010 BKN066 OVC098 11/10 Q1016

METARs EXPIRÉS :
  • 210200Z AUTO VRB02KT 9999 SCT010 BKN068 OVC098 11/10 Q1016
  • 210130Z AUTO VRB03KT 9999 SCT014 BKN072 BKN098 11/10 Q1016
  • 210100Z AUTO 26004KT 9999 FEW012 SCT100 12/10 Q1015
  • 210030Z AUTO 25003KT 220V280 9999 OVC012 12/10 Q1015
  • 210000Z AUTO 28004KT 9999 BKN011 BKN025 BKN110 12/10 Q1014

Prévision TAF périmée.



MET'MAP, la Météo Aéronautique d'un coup d'oeil ! - Copyright ORBIFLY Décembre 2007 - Disclaimer

ORBIFLY MET'MAP TEAM :

Programmation & Développement : Alexandra Zaïnal
Conception & Développement : Baudouin d'Aumeries
Co-Programmation & Développement : Marc-Olivier Méhu
Soutien technique & logistique : Manuel Goepfert

Contact : metmap@orbifly.com




SOURCES & CREDITS :

   NOAA